LPFRLPPT

Guest
Details From LPFR - Faro
To LPPT - Lisboa
Flight Number -
Tags decoded
Created
Modified
Stats Distance 120 nm / 222 km
Max Altitude 0 ft / 0 m
Waypoints 3
Social Downloads 0
Likes 0
Share VATSIM

Download

Looking for another format? Having issues loading an existing format? Contact us
Advertisement - Login to hide

Notes

Requested: LPFR ODEMI A5 LPPT

Route

LPFR ODEMI LPPT

ID Type Via Altitude Latitude Longitude Leg Dist Tot Dist Heading (true) Name
O LPFR APT - 0 ft / 0 m 37.01534˚ -7.97233˚ - 0 nm - Faro
ODEMI FIX - 0 ft / 0 m 37.49750˚ -8.38389˚ 35 nm 35 nm 326° / 326° -
O LPPT APT - 0 ft / 0 m 38.77856˚ -9.13515˚ 84 nm 119 nm 335° / 335° Lisboa

Altitude Profile

Advertisement - Login to hide

LPFR

Details ICAO LPFR (FAO)
Name Faro
Region Portugal
Timezone Europe/Lisbon (UTC+0.0)
Stats Elevation 24 ft / 7 m (AMSL)
Location 37.015336° -7.972327°
Runways 1
Magnetic Variation 1.925° W

METAR

LPFR 161500Z 21003KT 160V270 CAVOK 20/09 Q1027

Decode

TAF

TAF LPFR 161100Z 1612/1712 VRB03KT 9999 FEW045 BECMG 1612/1615 01010KT BECMG 1621/1624 SCT012 PROB30 TEMPO 1702/1706 BKN008

Decode

Departure Runways

ID Width Length Bearing (true) Bearing (mag) Surface Threshold Offset Overrun Length
10 148 ft / 45 m 8,148 ft / 2,484 m 100.08° 102.00° Asphalt 148 ft / 45 m 0 ft / 0 m
28 148 ft / 45 m 8,148 ft / 2,484 m 280.10° 282.02° Asphalt 148 ft / 45 m 0 ft / 0 m

LPPT

Details ICAO LPPT (LIS)
Name Lisboa
Region Portugal
Timezone Europe/Lisbon (UTC+0.0)
Stats Elevation 374 ft / 114 m (AMSL)
Location 38.778559° -9.135146°
Runways 2
Magnetic Variation 2.353° W

METAR

LPPT 161500Z 31005KT 280V350 9999 FEW010 BKN014 15/13 Q1030

Decode

TAF

TAF LPPT 161100Z 1612/1718 VRB03KT 9999 FEW010 BKN015 BECMG 1613/1616 35010KT FEW020 BECMG 1705/1707 03007KT FEW012 PROB30 1705/1710 3000 BR BKN003 BECMG 1710/1712 03013KT

Decode

Destination Runways

ID Width Length Bearing (true) Bearing (mag) Surface Threshold Offset Overrun Length
03 148 ft / 45 m 12,518 ft / 3,815 m 22.70° 25.05° Asphalt 296 ft / 90 m 0 ft / 0 m
17 148 ft / 45 m 7,922 ft / 2,415 m 168.38° 170.73° Asphalt 0 ft / 0 m 0 ft / 0 m
21 148 ft / 45 m 12,518 ft / 3,815 m 202.72° 205.07° Asphalt 1,969 ft / 600 m 0 ft / 0 m
35 148 ft / 45 m 7,922 ft / 2,415 m 348.38° 350.73° Asphalt 492 ft / 150 m 0 ft / 0 m

Approach Navaids

Runway Type Ident Frequency Range Bearing (true) Bearing (mag) Slope Elevation
03 Localiser ILI 109.10 MHz 18 nm / 33 km 22.74° 25.09° - 335 ft / 102 m (AMSL)
03 Glidescope ILI 109.10 MHz 10 nm / 19 km 22.71° 25.06° 3.00° 419 ft / 128 m (AMSL)
03 DME ILI 109.10 MHz 18 nm / 33 km - - - 419 ft / 128 m (AMSL)
21 Localiser ILB 109.50 MHz 18 nm / 33 km 202.59° 204.94° - 335 ft / 102 m (AMSL)
21 Glidescope ILB 109.50 MHz 10 nm / 19 km 202.71° 205.06° 3.00° 423 ft / 129 m (AMSL)
21 DME ILB 109.50 MHz 18 nm / 33 km - - - 423 ft / 129 m (AMSL)

Popular Alternatives